Trieste / Ronchi Dei Legionari LIPQ

Flugplatz Daten

Name: Trieste / Ronchi Dei Legionari

Ident: LIPQ

Lat: 45,82749939

Long: 13,47220039

Platzhöhe: 39 ft

IataCode: TRS

City: Trieste

Homepage: http://www.aeroporto.fvg.it/

Metar

2022/08/13 18:20
LIPQ 131820Z AUTO VRB04KT 9999 FEW120/// 23/11 Q1012

Taf

2022/08/13 18:22
TAF LIPQ 131700Z 1318/1418 VRB05KT CAVOK
BECMG 1409/1411 21010KT
BECMG 1416/1418 VRB05KT
Gewünschte Webcam nicht vorhanden? Dann fügen Sie eine hinzu. Sie wird dann so schnell wie möglich freigeschaltet
Url: Title: